General Aviation Weather

Text Reports

Enter one or more of the following location identifiers separated by a space:

Zip Code, Four-Character ICAO or Three-Character IATA airport codes.

METAR - Aviation Routine Weather Report
VTBD - Bangkok (Don Mueang),
Updated at 6:30 AM GMT on March 04, 2015 (1:30 PM ICT):
METAR VTBD 040630Z 16008KT 100V210 9999 FEW020 SCT035 BKN300 34/24 Q1009 NOSIG
TAF - Terminal Area Forecast
VTBD - Bangkok (Don Mueang),
Updated at 6:30 AM GMT on March 04, 2015 (1:30 PM ICT):
TAF VTBD 040500Z 0406/0512 19008KT 9999 FEW025 SCT040 BKN300
     BECMG 0409/0411 18008KT FEW025 SCT300
     BECMG 0414/0416 20008KT CAVOK
     BECMG 0422/0424 17005KT FEW020 BKN300

     BECMG 0502/0504 21008KT SCT020 BKN300
     BECMG 0509/0511 19008KT FEW025 SCT300=
TAF AMD YBTL 040508Z 0406/0506 06014KT 9999 -SHRA SCT030 SCT045
     FM041000 10008KT 9999 -SHRA SCT025 SCT035
     FM050200 06014KT 9999 FEW035
     INTER 0412/0424 3000 SHRA BKN012 RMK=
Decoded:
ID: VTBD   Bangkok/Don Mua, TH
REPORT TIME:  4  5: 0
VALID TIME: 4 March AT 06:00Z to 5 March AT 12:00Z.
INITIAL WX
   WINDS: 190 AT 8
   CLOUDS: 25 FEW
   CLOUDS: 40 SCT
   CLOUDS: 300 BKN
WX BECOMING FROM 09Z TO 11Z
   WINDS: 180 AT 8
   CLOUDS: 25 FEW
   CLOUDS: 300 SCT
WX BECOMING FROM 14Z TO 16Z
   WINDS: 200 AT 8
   WEATHER: CAVOK
WX BECOMING FROM 22Z TO 24Z
   WINDS: 170 AT 5
   CLOUDS: 20 FEW
   CLOUDS: 300 BKN
WX BECOMING FROM 02Z TO 04Z
   WINDS: 210 AT 8
   CLOUDS: 20 SCT
   CLOUDS: 300 BKN
WX BECOMING FROM 09Z TO 11Z
   WINDS: 190 AT 8
   CLOUDS: 25 FEW
   CLOUDS: 300 SCT
   COMMENTS: = 

PIREP - Pilot Weather Report
VTBD - Bangkok (Don Mueang),
Updated at 6:30 AM GMT on March 04, 2015 (1:30 PM ICT):
No PIREP is currently available for this location.
AIRMET - Airmens Meteorological Information
VTBD - Bangkok (Don Mueang),
Updated at 6:30 AM GMT on March 04, 2015 (1:30 PM ICT):
No AIRMET is currently available for this location.
SIGMET - Significant Meteorological Information
VTBD - Bangkok (Don Mueang),
Updated at 6:30 AM GMT on March 04, 2015 (1:30 PM ICT):
No SIGMET is currently available for this location.
NOTAM - Notice to Airmen
VTBD - Bangkok (Don Mueang),
Updated at 6:30 AM GMT on March 04, 2015 (1:30 PM ICT):
No NOTAM is currently available for this location.
Forecast Area
VTBD - Bangkok (Don Mueang),
Updated at 6:30 AM GMT on March 04, 2015 (1:30 PM ICT):
No NOTAM is currently available for this location.
Aviation Weather Maps